Time;durP1;ratioP1;P1;durP2;ratioP2;P2;SDS_P1;SDS_P2;PMS_P1;PMS_P2;Temp;Humidity;BMP_temperature;BMP_pressure;BME280_temperature;BME280_humidity;BME280_pressure;Samples;Min_cycle;Max_cycle;Signal;HPM_P1;HPM_P2
2023/06/18 00:02:05;;;;;;;19.20;15.40;;;12.70;99.90;;;13.00;100.00;100660.09;5002235;28;20037;-85
2023/06/18 00:04:32;;;;;;;19.13;15.25;;;12.80;99.90;;;12.95;100.00;100643.50;5004941;28;20038;-86
2023/06/18 00:06:58;;;;;;;19.00;14.93;;;12.80;99.90;;;13.01;100.00;100647.22;4997980;28;20116;-85
2023/06/18 00:09:24;;;;;;;18.27;14.65;;;12.90;99.90;;;12.95;100.00;100638.00;5002355;28;20220;-85
2023/06/18 00:11:50;;;;;;;21.90;16.63;;;12.80;99.90;;;12.92;100.00;100633.00;5006084;28;20560;-85
2023/06/18 00:14:17;;;;;;;19.27;15.10;;;12.80;99.90;;;12.90;100.00;100643.34;5010533;28;20065;-86
2023/06/18 00:16:43;;;;;;;21.15;16.67;;;12.70;99.90;;;12.85;100.00;100630.34;4994589;28;20061;-86
2023/06/18 00:19:09;;;;;;;21.10;16.63;;;12.70;99.90;;;12.86;100.00;100640.25;5009260;28;20098;-85
2023/06/18 00:21:37;;;;;;;23.33;18.93;;;12.70;99.90;;;12.87;100.00;100635.63;5003719;28;20053;-86
2023/06/18 00:24:04;;;;;;;26.30;18.15;;;12.70;99.90;;;12.90;100.00;100624.19;5007041;28;20326;-86
2023/06/18 00:26:30;;;;;;;25.10;18.60;;;12.70;99.90;;;12.98;100.00;100621.13;4991718;28;20490;-87
2023/06/18 00:28:57;;;;;;;23.15;18.08;;;12.80;99.90;;;12.97;100.00;100616.72;5004505;28;20034;-86
2023/06/18 00:31:25;;;;;;;22.50;17.13;;;12.80;99.90;;;12.94;100.00;100619.91;5006404;28;20544;-86
2023/06/18 00:33:51;;;;;;;26.33;18.45;;;12.80;99.90;;;13.00;100.00;100615.41;4993133;28;20193;-85
2023/06/18 00:36:19;;;;;;;21.23;17.27;;;12.80;99.90;;;12.99;100.00;100605.53;4987391;28;20042;-86
2023/06/18 00:38:45;;;;;;;22.85;18.20;;;12.80;99.90;;;13.00;100.00;100605.31;5001910;28;20026;-87
2023/06/18 00:41:11;;;;;;;21.35;16.73;;;12.80;99.90;;;13.01;100.00;100596.03;5001794;28;20039;-86
2023/06/18 00:43:37;;;;;;;21.75;17.45;;;12.90;99.90;;;13.00;100.00;100597.09;5024734;28;20049;-86
2023/06/18 00:46:05;;;;;;;22.80;17.13;;;12.80;99.90;;;12.91;100.00;100584.78;5014752;28;20042;-86
2023/06/18 00:48:32;;;;;;;21.20;17.38;;;12.80;99.90;;;12.91;100.00;100593.00;5030228;28;20033;-86
2023/06/18 00:51:03;;;;;;;22.93;16.37;;;12.70;99.90;;;12.90;100.00;100594.06;5034862;28;20037;-87
2023/06/18 00:53:31;;;;;;;24.58;17.55;;;12.70;99.90;;;12.91;100.00;100582.06;4998710;28;20053;-87
2023/06/18 00:55:57;;;;;;;23.05;18.02;;;12.70;99.90;;;12.96;100.00;100584.91;5026497;28;20060;-88
2023/06/18 00:58:25;;;;;;;22.58;17.05;;;12.80;99.90;;;12.99;100.00;100580.88;5011500;28;20038;-87
2023/06/18 01:00:52;;;;;;;23.13;17.67;;;12.80;99.90;;;12.94;100.00;100581.59;4999142;28;20038;-86
2023/06/18 01:03:21;;;;;;;21.25;16.40;;;12.80;99.90;;;12.98;100.00;100582.78;5013784;28;20044;-86
2023/06/18 01:05:53;;;;;;;21.08;16.52;;;12.80;99.90;;;12.91;100.00;100582.91;4992326;28;20039;-87
2023/06/18 01:08:23;;;;;;;20.85;16.55;;;12.70;99.90;;;12.79;100.00;100591.09;5000657;28;20486;-87
2023/06/18 01:11:03;;;;;;;22.38;16.25;;;12.60;99.90;;;12.73;100.00;100592.03;5009375;28;20045;-87
2023/06/18 01:13:32;;;;;;;22.92;17.95;;;12.50;99.90;;;12.68;100.00;100594.59;5005677;28;20049;-86
2023/06/18 01:16:05;;;;;;;24.00;18.63;;;12.40;99.90;;;12.71;100.00;100594.13;5006719;28;20406;-86
2023/06/18 01:18:44;;;;;;;19.23;15.13;;;12.50;99.90;;;12.62;100.00;100603.75;4990499;28;20049;-85
2023/06/18 01:21:18;;;;;;;18.40;14.67;;;12.50;99.90;;;12.43;100.00;100598.28;4992529;28;20363;-87
2023/06/18 01:24:00;;;;;;;18.35;14.73;;;12.30;99.90;;;12.16;100.00;100601.34;5016172;28;20046;-85
2023/06/18 01:26:27;;;;;;;22.17;17.08;;;12.00;99.90;;;11.90;100.00;100592.38;5011591;28;20144;-86
2023/06/18 01:28:58;;;;;;;23.10;18.23;;;11.80;99.90;;;11.88;100.00;100602.69;5021755;28;20059;-87
2023/06/18 01:31:25;;;;;;;23.30;19.20;;;11.70;99.90;;;11.84;100.00;100603.38;5006890;28;20064;-88
2023/06/18 01:33:53;;;;;;;25.07;19.13;;;11.70;99.90;;;11.82;100.00;100603.59;5020087;28;20021;-86
2023/06/18 01:36:37;;;;;;;25.90;18.85;;;11.60;99.90;;;11.83;100.00;100597.06;5017642;28;20052;-87
2023/06/18 01:39:54;;;;;;;24.55;18.60;;;11.60;99.90;;;11.87;100.00;100595.56;5015375;28;20034;-86
2023/06/18 01:42:25;;;;;;;25.58;19.50;;;11.70;99.90;;;11.85;100.00;100592.22;4980591;28;20053;-87
2023/06/18 01:45:28;;;;;;;29.63;21.58;;;11.70;99.90;;;11.91;100.00;100591.31;4997396;28;20042;-86
2023/06/18 01:48:02;;;;;;;27.63;20.90;;;11.70;99.90;;;11.96;100.00;100589.81;4975309;28;20050;-87
2023/06/18 01:50:32;;;;;;;27.83;19.92;;;11.80;99.90;;;12.04;100.00;100600.47;5009221;28;20034;-86
2023/06/18 01:53:00;;;;;;;33.08;23.25;;;11.90;99.90;;;12.19;100.00;100591.88;5011675;28;20054;-86
2023/06/18 01:55:29;;;;;;;26.17;20.50;;;12.00;99.90;;;12.32;100.00;100588.13;5003379;28;20041;-87
2023/06/18 01:57:56;;;;;;;27.92;20.95;;;12.20;99.90;;;12.33;100.00;100590.66;5015083;28;20045;-87
2023/06/18 02:00:22;;;;;;;26.15;19.80;;;12.20;99.90;;;12.25;100.00;100580.00;4988294;28;20054;-87
2023/06/18 02:02:51;;;;;;;26.73;20.13;;;12.10;99.90;;;12.22;100.00;100578.59;4991221;28;20117;-86
2023/06/18 02:05:17;;;;;;;26.90;19.75;;;12.10;99.90;;;12.23;100.00;100585.72;5010212;28;20040;-88
2023/06/18 02:07:43;;;;;;;27.10;19.80;;;12.10;99.90;;;12.19;100.00;100579.03;5021780;28;20490;-87
2023/06/18 02:10:10;;;;;;;26.55;20.85;;;12.10;99.90;;;12.14;100.00;100586.25;5024801;28;20050;-87
2023/06/18 02:12:35;;;;;;;26.17;18.63;;;12.00;99.90;;;12.04;100.00;100603.19;5018200;28;20030;-85
2023/06/18 02:15:01;;;;;;;21.10;17.02;;;11.90;99.90;;;11.81;100.00;100599.19;5007949;28;20036;-86
2023/06/18 02:17:28;;;;;;;25.38;19.05;;;11.80;99.90;;;11.76;100.00;100599.06;5025009;28;20083;-86
2023/06/18 02:19:54;;;;;;;25.45;19.55;;;11.70;99.90;;;11.75;100.00;100589.19;5007216;28;20034;-87
2023/06/18 02:22:22;;;;;;;26.17;19.95;;;11.60;99.90;;;11.80;100.00;100594.81;5014769;28;20650;-88
2023/06/18 02:24:51;;;;;;;28.83;21.33;;;11.60;99.90;;;11.83;100.00;100583.41;5007882;28;20034;-88
2023/06/18 02:27:20;;;;;;;31.40;23.58;;;11.70;99.90;;;11.88;100.00;100583.56;5016561;28;20038;-88
2023/06/18 02:29:45;;;;;;;31.00;22.92;;;11.70;99.90;;;11.89;100.00;100585.22;5005365;28;20037;-87
2023/06/18 02:32:11;;;;;;;35.83;24.77;;;11.80;99.90;;;11.89;100.00;100578.94;5013174;28;20367;-88
2023/06/18 02:34:37;;;;;;;31.40;23.23;;;11.80;99.90;;;11.84;100.00;100563.22;5015359;28;20034;-87
2023/06/18 02:37:03;;;;;;;31.83;23.48;;;11.90;99.90;;;11.87;100.00;100562.75;5009347;28;20034;-87
2023/06/18 02:39:29;;;;;;;32.20;23.02;;;11.80;99.90;;;11.86;100.00;100577.47;5017888;28;20037;-89
2023/06/18 02:41:55;;;;;;;28.00;21.38;;;11.80;99.90;;;11.79;100.00;100574.81;5013326;28;20031;-88
2023/06/18 02:44:21;;;;;;;26.15;21.33;;;11.70;99.90;;;11.74;100.00;100573.84;5017054;28;20422;-88
2023/06/18 02:46:46;;;;;;;38.95;25.80;;;11.60;99.90;;;11.86;100.00;100582.13;5014273;28;20038;-88
2023/06/18 02:49:12;;;;;;;33.40;25.05;;;11.70;99.90;;;11.83;100.00;100572.47;5013944;28;20038;-88
2023/06/18 02:51:38;;;;;;;30.15;22.02;;;11.70;99.90;;;11.79;100.00;100574.81;5001307;28;20451;-87
2023/06/18 02:54:03;;;;;;;33.92;24.67;;;11.70;99.90;;;11.74;100.00;100571.13;5018267;28;20030;-88
2023/06/18 02:56:29;;;;;;;31.75;23.65;;;11.60;99.90;;;11.74;100.00;100563.72;5011698;28;20046;-88
2023/06/18 02:58:58;;;;;;;33.67;23.52;;;11.60;99.90;;;11.75;100.00;100551.75;4990697;28;20032;-88
2023/06/18 03:01:26;;;;;;;37.05;26.33;;;11.70;99.90;;;11.79;100.00;100554.88;4997463;28;20048;-88
2023/06/18 03:03:53;;;;;;;36.95;24.75;;;11.70;99.90;;;11.83;100.00;100542.41;4984133;28;20033;-88
2023/06/18 03:06:19;;;;;;;35.53;24.20;;;11.70;99.90;;;11.80;100.00;100540.13;5011011;28;20114;-87
2023/06/18 03:08:46;;;;;;;28.05;22.25;;;11.70;99.90;;;11.73;100.00;100528.44;5013038;28;20394;-87
2023/06/18 03:11:12;;;;;;;29.77;22.35;;;11.70;99.90;;;11.75;100.00;100540.81;5000738;28;20034;-88
2023/06/18 03:13:40;;;;;;;29.25;20.85;;;11.60;99.90;;;11.74;100.00;100546.53;4996414;28;20041;-87
2023/06/18 03:16:07;;;;;;;38.65;24.90;;;11.60;99.90;;;11.83;100.00;100547.06;4986592;28;20493;-88
2023/06/18 03:18:34;;;;;;;34.53;24.63;;;11.70;99.90;;;11.83;100.00;100536.94;5005335;28;20033;-88
2023/06/18 03:21:00;;;;;;;32.47;22.95;;;11.70;99.90;;;11.88;100.00;100534.34;5004000;28;20033;-89
2023/06/18 03:23:26;;;;;;;29.20;22.25;;;11.80;99.90;;;11.89;100.00;100543.41;4990046;28;20038;-89
2023/06/18 03:25:52;;;;;;;29.42;21.73;;;11.70;99.90;;;11.76;100.00;100538.94;5008962;28;20401;-87
2023/06/18 03:28:27;;;;;;;30.50;23.27;;;11.60;99.90;;;11.73;100.00;100533.91;5010607;28;20180;-88
2023/06/18 03:30:53;;;;;;;28.42;21.65;;;11.70;99.90;;;11.83;100.00;100555.25;4997636;28;20037;-87
2023/06/18 03:33:21;;;;;;;30.88;21.15;;;11.60;99.90;;;11.78;100.00;100561.41;5004269;28;20049;-88
2023/06/18 03:35:47;;;;;;;28.13;20.10;;;11.50;99.90;;;11.70;100.00;100562.53;5008077;28;20030;-87
2023/06/18 03:38:14;;;;;;;25.15;19.33;;;11.50;99.90;;;11.47;100.00;100552.25;4993525;28;20045;-88
2023/06/18 03:40:40;;;;;;;28.33;20.80;;;11.40;99.90;;;11.38;100.00;100570.81;5000130;28;20509;-88
2023/06/18 03:43:07;;;;;;;30.45;22.02;;;11.30;99.90;;;11.30;100.00;100565.66;5002896;28;20434;-88
2023/06/18 03:45:33;;;;;;;29.67;21.52;;;11.20;99.90;;;11.26;100.00;100580.78;5007126;28;20037;-87
2023/06/18 03:47:59;;;;;;;30.67;21.80;;;11.10;99.90;;;11.16;100.00;100576.69;5001752;28;20089;-88
2023/06/18 03:50:29;;;;;;;37.67;26.30;;;11.00;99.90;;;11.17;100.00;100588.44;4975806;28;20106;-88
2023/06/18 03:52:55;;;;;;;30.55;23.33;;;11.00;99.90;;;11.17;100.00;100586.53;4994399;28;20524;-87
2023/06/18 03:55:21;;;;;;;37.00;26.45;;;11.00;99.90;;;11.24;100.00;100591.94;4991270;28;20092;-88
2023/06/18 03:57:48;;;;;;;36.08;26.67;;;11.00;99.90;;;11.33;100.00;100587.06;5002485;28;20085;-88
2023/06/18 04:00:14;;;;;;;38.08;28.65;;;11.10;99.90;;;11.41;100.00;100580.47;4995080;28;20061;-84
2023/06/18 04:02:41;;;;;;;42.72;28.73;;;11.20;99.90;;;11.62;100.00;100592.88;4990437;28;20379;-85
2023/06/18 04:05:13;;;;;;;41.05;27.52;;;11.30;99.90;;;11.73;100.00;100592.13;4986551;28;20034;-88
2023/06/18 04:07:39;;;;;;;48.70;30.73;;;11.40;99.90;;;11.85;100.00;100585.94;4977230;28;20190;-88
2023/06/18 04:10:05;;;;;;;45.97;30.35;;;11.50;99.90;;;11.98;100.00;100584.94;5008182;28;20038;-88
2023/06/18 04:12:31;;;;;;;51.90;33.58;;;11.60;99.90;;;12.08;100.00;100577.91;5007898;28;20043;-88
2023/06/18 04:14:57;;;;;;;56.17;34.60;;;11.70;99.90;;;12.26;100.00;100584.41;5002707;28;20060;-84
2023/06/18 04:17:26;;;;;;;51.22;33.55;;;11.80;99.90;;;12.46;100.00;100592.34;5018085;28;20030;-84
2023/06/18 04:19:53;;;;;;;53.20;35.72;;;12.00;99.90;;;12.47;100.00;100566.69;4995992;28;20038;-84
2023/06/18 04:22:20;;;;;;;50.65;34.25;;;12.20;99.90;;;12.77;100.00;100587.75;5002716;28;20034;-84
2023/06/18 04:24:46;;;;;;;52.45;34.85;;;12.30;99.90;;;12.89;100.00;100586.94;5001737;28;20034;-84
2023/06/18 04:27:12;;;;;;;52.47;35.40;;;12.40;99.90;;;13.14;100.00;100585.91;4990482;28;20395;-82
2023/06/18 04:29:38;;;;;;;54.78;36.97;;;12.60;99.90;;;13.29;100.00;100582.72;4990844;28;20034;-81
2023/06/18 04:32:05;;;;;;;56.38;36.08;;;12.70;99.90;;;13.43;100.00;100599.81;4978214;28;20066;-82
2023/06/18 04:34:31;;;;;;;59.55;38.25;;;12.80;99.90;;;13.59;100.00;100598.25;4989262;28;20034;-81
2023/06/18 04:36:57;;;;;;;56.35;36.72;;;12.90;99.90;;;13.70;100.00;100610.28;5002620;28;20462;-81
2023/06/18 04:39:23;;;;;;;51.03;34.80;;;13.10;99.90;;;13.81;100.00;100613.03;5004668;28;20034;-86
2023/06/18 04:41:49;;;;;;;47.45;33.60;;;13.20;99.90;;;13.88;100.00;100623.03;4990721;28;20035;-86
2023/06/18 04:44:16;;;;;;;47.85;33.25;;;13.30;99.90;;;13.98;100.00;100634.25;4992630;28;20491;-84
2023/06/18 04:46:43;;;;;;;44.53;31.40;;;13.40;99.90;;;13.97;100.00;100618.03;4991764;28;20030;-82
2023/06/18 04:49:09;;;;;;;44.53;31.65;;;13.40;99.90;;;14.21;100.00;100630.63;5008778;28;20302;-85
2023/06/18 04:51:34;;;;;;;45.97;32.10;;;13.60;99.90;;;14.26;100.00;100635.41;5006364;28;20037;-84
2023/06/18 04:54:03;;;;;;;43.83;31.05;;;13.70;99.90;;;14.36;100.00;100629.31;4998440;28;20052;-86
2023/06/18 04:56:28;;;;;;;43.28;32.08;;;13.80;99.90;;;14.47;100.00;100641.31;4981515;28;20109;-86
2023/06/18 04:58:55;;;;;;;38.10;28.90;;;13.90;99.90;;;14.67;100.00;100657.38;4987498;28;20038;-84
2023/06/18 05:01:21;;;;;;;36.50;28.15;;;14.00;99.90;;;14.76;100.00;100658.66;4977307;28;20045;-85
2023/06/18 05:03:47;;;;;;;36.35;27.52;;;14.20;99.90;;;14.93;100.00;100660.66;4988082;28;20045;-82
2023/06/18 05:06:12;;;;;;;38.20;26.45;;;14.30;99.90;;;15.06;100.00;100665.00;5001343;28;20034;-83
2023/06/18 05:08:39;;;;;;;32.13;26.10;;;14.50;99.90;;;15.23;100.00;100676.03;4991913;28;20493;-85
2023/06/18 05:11:05;;;;;;;30.88;24.63;;;14.70;99.90;;;15.37;100.00;100677.34;4989150;28;20034;-84
2023/06/18 05:13:33;;;;;;;;;;;14.80;99.90;;;15.44;100.00;100666.22;4992978;28;20045;-85
2023/06/18 05:16:00;;;;;;;27.00;23.20;;;15.00;99.90;;;15.59;100.00;100673.06;4981561;28;20341;-85
2023/06/18 05:18:28;;;;;;;28.75;23.00;;;15.20;99.90;;;15.73;100.00;100681.81;4976519;28;20036;-84
2023/06/18 05:20:54;;;;;;;25.83;21.15;;;15.30;99.90;;;15.85;100.00;100688.03;5003927;28;20111;-85
2023/06/18 05:23:22;;;;;;;26.65;21.35;;;15.40;99.90;;;16.04;100.00;100693.31;4991004;28;20042;-86
2023/06/18 05:25:48;;;;;;;24.40;19.88;;;15.60;99.90;;;16.22;100.00;100681.16;4984906;28;20030;-84
2023/06/18 05:28:14;;;;;;;24.25;20.08;;;15.80;99.90;;;16.41;100.00;100700.16;4979641;28;20045;-83
2023/06/18 05:30:43;;;;;;;24.88;19.95;;;15.90;99.90;;;16.58;100.00;100695.44;4991084;28;20105;-85
2023/06/18 05:33:09;;;;;;;24.70;19.55;;;16.20;99.90;;;16.78;100.00;100705.00;4978688;28;20030;-87
2023/06/18 05:35:36;;;;;;;23.05;19.48;;;16.30;99.90;;;16.87;100.00;100708.16;4999932;28;20085;-84
2023/06/18 05:38:02;;;;;;;27.35;18.95;;;16.10;99.90;;;16.94;100.00;100703.25;5000844;28;20429;-88
2023/06/18 05:40:28;;;;;;;26.85;20.38;;;16.70;99.90;;;17.17;100.00;100709.59;4987981;28;20042;-84
2023/06/18 05:42:56;;;;;;;26.85;19.25;;;16.80;99.90;;;17.36;100.00;100715.59;4992300;28;20026;-84
2023/06/18 05:45:22;;;;;;;23.90;19.15;;;17.00;99.90;;;17.53;100.00;100716.31;4989703;28;20062;-83
2023/06/18 05:47:48;;;;;;;23.70;19.90;;;17.20;99.90;;;17.73;100.00;100705.69;4997378;28;20041;-84
2023/06/18 05:50:23;;;;;;;21.38;18.42;;;17.40;99.90;;;17.80;100.00;100717.38;4984320;28;20038;-83
2023/06/18 05:52:49;;;;;;;23.15;18.05;;;17.50;99.90;;;18.00;100.00;100711.16;4987185;28;20076;-88
2023/06/18 05:55:16;;;;;;;24.23;18.95;;;17.70;99.90;;;18.15;100.00;100712.38;5006170;28;20030;-82
2023/06/18 05:57:43;;;;;;;21.38;18.13;;;17.90;99.90;;;18.24;100.00;100714.38;4981920;28;20030;-82
2023/06/18 06:00:10;;;;;;;20.30;17.05;;;18.00;99.90;;;18.37;100.00;100717.78;4990550;28;20045;-82
2023/06/18 06:02:44;;;;;;;22.35;17.05;;;18.20;99.90;;;18.49;100.00;100714.81;4973766;28;20084;-79
2023/06/18 06:05:17;;;;;;;20.92;16.65;;;18.30;99.90;;;18.60;100.00;100712.91;4976918;28;20057;-80
2023/06/18 06:07:43;;;;;;;20.27;16.42;;;18.40;99.90;;;18.78;100.00;100719.91;4976076;28;20061;-81
2023/06/18 06:10:18;;;;;;;19.25;15.52;;;18.60;99.90;;;18.92;100.00;100723.00;4981025;28;20044;-80
2023/06/18 06:12:45;;;;;;;17.92;15.13;;;18.70;99.90;;;19.02;100.00;100709.22;4996471;28;20034;-82
2023/06/18 06:15:11;;;;;;;20.27;15.55;;;18.90;99.90;;;19.18;100.00;100720.31;4999740;28;20069;-80
2023/06/18 06:17:37;;;;;;;17.90;14.70;;;19.00;99.90;;;19.37;100.00;100721.47;4986315;28;20471;-81
2023/06/18 06:20:05;;;;;;;19.92;16.05;;;19.20;99.90;;;19.52;100.00;100720.66;4998198;28;20058;-80
2023/06/18 06:22:32;;;;;;;19.67;15.45;;;19.40;99.90;;;19.60;100.00;100710.13;4998615;28;20038;-82
2023/06/18 06:24:58;;;;;;;18.70;14.90;;;19.50;99.90;;;19.75;100.00;100714.84;4993384;28;20038;-82
2023/06/18 06:27:24;;;;;;;20.48;14.80;;;19.60;99.90;;;19.90;100.00;100705.69;5004601;28;20068;-80
2023/06/18 06:29:50;;;;;;;18.27;14.02;;;19.80;99.90;;;20.12;100.00;100714.56;5002385;28;20069;-80
2023/06/18 06:32:16;;;;;;;17.95;13.60;;;20.00;99.90;;;20.15;100.00;100706.81;4994708;28;20042;-78
2023/06/18 06:34:41;;;;;;;17.27;14.35;;;20.10;99.90;;;20.25;100.00;100706.75;5001686;28;20262;-79
2023/06/18 06:37:07;;;;;;;18.17;13.57;;;20.20;99.90;;;20.32;100.00;100709.25;5005092;28;20045;-77
2023/06/18 06:39:34;;;;;;;18.33;13.68;;;20.30;99.90;;;20.42;100.00;100714.75;4990449;28;20530;-78
2023/06/18 06:42:00;;;;;;;18.02;13.82;;;20.40;99.90;;;20.39;100.00;100710.63;4994042;28;20022;-78
2023/06/18 06:44:29;;;;;;;15.68;13.43;;;20.50;99.90;;;20.50;100.00;100705.88;5002584;28;20490;-77
2023/06/18 06:47:13;;;;;;;16.42;12.88;;;20.50;99.90;;;20.57;100.00;100715.81;4996516;28;20061;-78
2023/06/18 06:49:57;;;;;;;18.42;12.65;;;20.60;99.90;;;20.73;100.00;100714.66;4994640;28;20073;-78
2023/06/18 06:52:33;;;;;;;15.35;12.18;;;20.70;99.90;;;20.91;100.00;100715.13;4973924;28;20041;-78
2023/06/18 06:54:58;;;;;;;16.98;13.07;;;20.80;99.90;;;21.08;100.00;100721.16;4984632;28;20122;-78
2023/06/18 06:57:25;;;;;;;16.15;12.60;;;21.00;99.90;;;21.24;100.00;100718.31;4989910;28;20030;-77
2023/06/18 06:59:51;;;;;;;16.02;12.25;;;21.10;99.90;;;21.34;100.00;100726.53;4994608;28;20105;-77
2023/06/18 07:02:16;;;;;;;14.45;11.50;;;21.30;99.90;;;21.48;100.00;100728.66;4995307;28;20038;-78
2023/06/18 07:04:46;;;;;;;16.10;12.30;;;21.50;99.90;;;21.53;100.00;100723.09;5001817;28;20033;-78
2023/06/18 07:07:14;;;;;;;15.55;12.25;;;21.50;99.90;;;21.63;100.00;100730.50;5001685;28;20061;-78
2023/06/18 07:09:40;;;;;;;15.75;12.07;;;21.60;99.90;;;21.77;100.00;100731.53;5004299;28;20084;-80
2023/06/18 07:12:07;;;;;;;17.55;12.15;;;21.70;99.90;;;21.70;100.00;100731.03;5002828;28;20046;-79
2023/06/18 07:14:32;;;;;;;15.13;11.52;;;21.80;99.90;;;21.89;100.00;100728.38;4974089;28;20093;-81
2023/06/18 07:16:58;;;;;;;14.50;11.57;;;21.90;99.90;;;21.82;100.00;100723.16;4994338;28;20148;-81
2023/06/18 07:19:24;;;;;;;14.77;11.32;;;21.90;99.90;;;21.67;100.00;100712.19;4998517;28;20037;-82
2023/06/18 07:21:50;;;;;;;13.75;10.85;;;21.90;99.90;;;22.07;100.00;100721.25;4994677;28;20042;-79
2023/06/18 07:24:17;;;;;;;13.85;10.77;;;;;;;22.36;99.07;100719.56;4985997;28;20077;-78
2023/06/18 07:26:43;;;;;;;13.85;10.93;;;;;;;22.52;100.00;100723.03;5000173;28;20042;-79
2023/06/18 07:29:09;;;;;;;12.18;10.70;;;;;;;22.69;97.91;100719.78;5000023;28;20034;-79
2023/06/18 07:31:35;;;;;;;13.18;10.75;;;;;;;22.80;95.60;100721.28;4995034;28;20069;-79
2023/06/18 07:34:01;;;;;;;11.73;10.18;;;;;;;22.69;90.36;100723.38;4998930;28;20406;-83
2023/06/18 07:36:27;;;;;;;13.30;10.65;;;;;;;22.76;90.41;100723.00;5006882;28;20037;-80
2023/06/18 07:38:54;;;;;;;12.57;9.80;;;;;;;22.91;91.32;100715.59;4995158;28;20088;-77
2023/06/18 07:41:20;;;;;;;14.18;10.70;;;;;;;23.07;84.55;100708.69;5006183;28;20034;-77
2023/06/18 07:43:46;;;;;;;13.57;10.75;;;;;;;23.19;88.98;100721.34;5004142;28;20129;-76
2023/06/18 07:46:12;;;;;;;12.10;10.80;;;;;;;23.13;82.70;100709.44;5001350;28;20094;-78
2023/06/18 07:48:39;;;;;;;11.60;9.48;;;;;;;23.32;86.71;100711.44;4997752;28;20041;-77
2023/06/18 07:51:05;;;;;;;14.00;10.55;;;;;;;23.44;85.31;100708.19;4993700;28;20507;-77
2023/06/18 07:53:35;;;;;;;13.65;10.80;;;;;;;23.39;86.83;100709.09;5000004;28;20478;-77
2023/06/18 07:56:01;;;;;;;13.25;10.82;;;;;;;23.58;80.67;100700.69;4993823;28;20041;-77
2023/06/18 07:58:27;;;;;;;13.93;10.95;;;;;;;23.66;83.08;100701.97;4996143;28;20339;-77
2023/06/18 08:00:53;;;;;;;12.48;11.18;;;;;;;23.73;83.12;100701.59;5008469;28;20039;-75
2023/06/18 08:03:19;;;;;;;11.75;10.43;;;;;;;23.68;77.46;100702.50;5001147;28;20510;-77
2023/06/18 08:05:45;;;;;;;12.75;10.20;;;;;;;23.88;77.41;100679.03;4990816;28;20553;-75
2023/06/18 08:08:13;;;;;;;13.65;10.95;;;;;;;24.03;81.66;100699.41;4999599;28;20034;-76
2023/06/18 08:10:39;;;;;;;;;;;;;;;23.96;74.77;100681.13;4994183;28;20629;-75
2023/06/18 08:13:05;;;;;;;11.27;9.55;;;;;;;24.16;78.14;100695.00;4992344;28;20012;-76
2023/06/18 08:15:31;;;;;;;13.05;9.93;;;;;;;24.29;78.40;100694.19;4993394;28;20057;-75
2023/06/18 08:17:58;;;;;;;11.77;10.35;;;;;;;24.56;75.14;100682.19;4993614;28;20046;-76
2023/06/18 08:20:24;;;;;;;11.75;10.55;;;;;;;24.38;68.94;100672.81;5003247;28;20129;-77
2023/06/18 08:22:50;;;;;;;12.45;9.40;;;;;;;24.30;70.73;100687.47;4998106;28;20038;-75
2023/06/18 08:25:16;;;;;;;12.70;9.48;;;;;;;24.46;71.79;100682.41;5002163;28;20423;-76
2023/06/18 08:27:42;;;;;;;12.35;9.65;;;;;;;24.61;73.25;100692.44;5002773;28;20038;-77
2023/06/18 08:30:08;;;;;;;10.82;9.40;;;;;;;24.98;70.50;100686.91;4998335;28;20495;-77
2023/06/18 08:32:34;;;;;;;10.18;9.02;;;;;;;25.13;68.13;100682.94;5007670;28;20124;-76
2023/06/18 08:35:01;;;;;;;10.65;8.60;;;;;;;25.48;67.62;100686.03;4993422;28;20131;-77
2023/06/18 08:37:27;;;;;;;12.68;8.57;;;;;;;25.54;60.21;100681.97;4991864;28;20070;-78
2023/06/18 08:39:53;;;;;;;10.48;9.10;;;;;;;25.43;61.24;100684.16;5001323;28;20088;-79
2023/06/18 08:42:22;;;;;;;10.77;8.77;;;;;;;25.76;66.77;100690.66;4977991;28;20046;-79
2023/06/18 08:44:50;;;;;;;10.23;7.72;;;;;;;25.92;65.70;100689.09;4998033;28;20288;-79
2023/06/18 08:47:17;;;;;;;10.57;8.55;;;;;;;25.66;58.54;100675.81;4998982;28;20042;-78
2023/06/18 08:49:46;;;;;;;8.55;7.47;;;;;;;25.40;54.33;100670.84;5002862;28;20121;-79
2023/06/18 08:52:17;;;;;;;8.70;7.60;;;;;;;25.65;53.27;100660.19;4991698;28;20521;-79
2023/06/18 08:54:44;;;;;;;8.73;7.10;;;;;;;25.66;54.98;100675.81;4996353;28;20391;-79
2023/06/18 08:57:31;;;;;;;9.50;7.75;;;;;;;25.97;54.08;100669.41;4998736;28;20049;-79
2023/06/18 08:59:59;;;;;;;9.63;7.32;;;;;;;26.45;55.85;100669.78;4969075;28;20038;-79
2023/06/18 09:02:27;;;;;;;8.68;6.90;;;;;;;26.83;51.70;100658.03;4981195;28;20100;-77
2023/06/18 09:04:55;;;;;;;9.75;7.03;;;;;;;26.94;50.52;100657.72;5002636;28;20030;-76
2023/06/18 09:07:24;;;;;;;10.27;7.32;;;;;;;26.43;45.95;100627.34;4990296;28;20068;-77
2023/06/18 09:09:50;;;;;;;10.15;7.60;;;;;;;26.50;50.33;100663.22;4999477;28;20067;-78
2023/06/18 09:12:17;;;;;;;10.13;6.63;;;;;;;26.86;47.59;100648.16;4974975;28;20034;-78
2023/06/18 09:14:44;;;;;;;11.18;7.43;;;;;;;27.11;45.53;100646.53;5002517;28;20461;-80
2023/06/18 09:17:10;;;;;;;8.70;7.20;;;;;;;27.36;48.38;100663.66;4996913;28;20061;-77
2023/06/18 09:19:37;;;;;;;9.07;6.50;;;;;;;27.21;48.01;100658.56;4992841;28;20365;-79
2023/06/18 09:22:18;;;;;;;7.38;6.40;;;;;;;27.57;45.19;100648.97;4992422;28;20100;-78
2023/06/18 09:24:58;;;;;;;7.93;6.28;;;;;;;27.73;42.69;100637.25;4989215;28;20041;-81
2023/06/18 09:27:32;;;;;;;7.55;6.35;;;;;;;28.03;45.01;100668.97;4992859;28;20374;-79
2023/06/18 09:29:58;;;;;;;7.93;6.18;;;;;;;28.47;44.17;100660.38;5004863;28;20474;-81
2023/06/18 09:32:24;;;;;;;9.35;6.20;;;;;;;28.82;41.31;100623.69;5005426;28;20125;-80
2023/06/18 09:34:50;;;;;;;8.25;6.50;;;;;;;28.91;42.52;100645.22;5007117;28;20048;-82
2023/06/18 09:37:18;;;;;;;7.50;6.30;;;;;;;28.90;42.10;100649.19;4990415;28;20061;-79
2023/06/18 09:39:45;;;;;;;7.75;6.32;;;;;;;29.07;41.02;100635.03;5009753;28;20120;-81
2023/06/18 09:42:13;;;;;;;8.15;6.03;;;;;;;28.75;39.99;100636.56;5003523;28;20041;-83
2023/06/18 09:44:43;;;;;;;8.02;6.10;;;;;;;29.12;38.40;100614.34;5011027;28;20053;-81
2023/06/18 09:47:12;;;;;;;6.53;5.38;;;;;;;29.13;35.39;100585.91;4994666;28;20042;-81
2023/06/18 09:49:48;;;;;;;6.15;5.20;;;;;;;29.29;35.30;100590.88;5011745;28;20045;-81
2023/06/18 09:52:17;;;;;;;7.05;4.82;;;;;;;29.39;35.11;100593.25;4996300;28;20041;-81
2023/06/18 09:54:44;;;;;;;6.57;5.18;;;;;;;28.88;32.70;100547.69;4992883;28;20172;-81
2023/06/18 09:57:13;;;;;;;6.17;4.87;;;;;;;28.91;33.62;100572.25;5007286;28;20042;-78
2023/06/18 09:59:39;;;;;;;6.85;5.68;;;;;;;29.46;34.41;100577.88;4996106;28;20275;-80
2023/06/18 10:02:12;;;;;;;6.40;5.13;;;;;;;30.04;34.85;100580.63;4999728;28;20034;-78
2023/06/18 10:04:39;;;;;;;7.32;5.60;;;;;;;30.34;35.42;100602.06;4996049;28;20038;-79
2023/06/18 10:07:15;;;;;;;6.45;5.47;;;;;;;30.66;34.84;100602.25;5007038;28;20177;-79
2023/06/18 10:09:45;;;;;;;6.60;5.50;;;;;;;30.73;33.13;100574.31;4995705;28;20117;-79
2023/06/18 10:12:15;;;;;;;7.70;5.70;;;;;;;30.46;33.78;100587.97;4989711;28;20037;-78
2023/06/18 10:14:42;;;;;;;8.07;5.95;;;;;;;30.09;33.67;100580.38;5004752;28;20069;-79
2023/06/18 10:17:34;;;;;;;7.80;4.72;;;;;;;29.87;30.80;100535.88;4988306;28;20030;-78
2023/06/18 10:20:06;;;;;;;6.38;4.93;;;;;;;29.54;32.20;100560.88;5003777;28;20034;-78
2023/06/18 10:22:47;;;;;;;7.85;5.25;;;;;;;29.11;32.17;100562.16;4999145;28;20363;-78